Main page
METAR-TAF:

METAR-TAF

Airports :

Bournemouth Airport

Bournemouth, England

latitude: 50-47N, longitude: 001-50W, elevation: 11 m

Current weather observation

The report was made 21 minutes ago, at 20:50 UTC
Wind 10 kt from the East/Southeast
Temperature 7°C
Humidity 76%
Pressure 1016 hPa
Visibility 10 km or more
Broken clouds at a height of 4300 ft

METAR: EGHH 212050Z 12010KT 9999 BKN043 07/03 Q1016

Time: 21:11 (21:11 UTC)

Forecast

The report was made 1 hour and 3 minutes ago, at 20:08 UTC
Forecast valid from 21 at 21 UTC to 22 at 06 UTC
Wind 5 kt from the Northeast
Visibility 10 km or more
Few clouds at a height of 2500 ft
Probability 30%
from 21 at 21 UTC to 22 at 06 UTC
Visibility: 7000 m

TAF: EGHH 212008Z 2121/2206 05005KT 9999 FEW025 PROB30 2121/2206 7000

Weather observations and forecasts of more than 4000 airports (METAR and TAF reports).

The available stations are represented by yellow and red dots on the map.

Hover mouse over dot to see the name of the station.

Then click to see weather observations and forecasts.

To change the map : click on the green buttons with a black cross to zoom in, on the green button with a dash to zoom out, or on the green arrows for adjacent maps.


METAR-TAF: